createdAt,value
2023-05-21T00:00:43.527Z,2421.00
2023-05-21T00:01:43.537Z,2422.00
2023-05-21T00:02:43.678Z,2422.00
2023-05-21T00:03:43.653Z,2423.00
2023-05-21T00:04:43.604Z,2413.00
2023-05-21T00:05:43.669Z,2411.00
2023-05-21T00:06:43.627Z,2407.00
2023-05-21T00:07:43.647Z,2410.00
2023-05-21T00:08:43.690Z,2405.00
2023-05-21T00:09:43.793Z,2411.00
2023-05-21T00:10:43.893Z,2401.00
2023-05-21T00:11:43.964Z,2405.00
2023-05-21T00:12:44.065Z,2394.00
2023-05-21T00:13:44.172Z,2391.00
2023-05-21T00:14:44.248Z,2387.00
2023-05-21T00:15:44.346Z,2387.00
2023-05-21T00:16:44.500Z,2383.00
2023-05-21T00:17:44.554Z,2380.00
2023-05-21T00:18:44.618Z,2372.00
2023-05-21T00:19:44.687Z,2368.00
2023-05-21T00:20:44.779Z,2369.00
2023-05-21T00:21:44.799Z,2370.00
2023-05-21T00:22:44.824Z,2371.00
2023-05-21T00:23:44.863Z,2372.00
2023-05-21T00:24:44.952Z,2363.00
2023-05-21T00:25:44.938Z,2360.00
2023-05-21T00:26:44.952Z,2362.00
2023-05-21T00:27:44.992Z,2357.00
2023-05-21T00:28:45.030Z,2359.00
2023-05-21T00:29:45.059Z,2348.00
2023-05-21T00:30:45.094Z,2350.00
2023-05-21T00:31:45.196Z,2345.00
2023-05-21T00:32:45.246Z,2336.00
2023-05-21T00:33:45.324Z,2332.00
2023-05-21T00:34:45.420Z,2325.00
2023-05-21T00:35:45.507Z,2335.00
2023-05-21T00:36:45.603Z,2326.00
2023-05-21T00:37:45.687Z,2323.00
2023-05-21T00:38:46.001Z,2317.00
2023-05-21T00:39:45.882Z,2315.00
2023-05-21T00:40:45.967Z,2308.00
2023-05-21T00:41:46.062Z,2310.00
2023-05-21T00:42:46.127Z,2296.00
2023-05-21T00:43:46.222Z,2305.00
2023-05-21T00:44:46.315Z,2301.00
2023-05-21T00:45:46.344Z,2302.00
2023-05-21T00:46:46.373Z,2304.00
2023-05-21T00:47:46.425Z,2304.00
2023-05-21T00:48:46.419Z,2305.00
2023-05-21T00:49:46.453Z,2305.00
2023-05-21T00:50:46.483Z,2300.00
2023-05-21T00:51:46.517Z,2297.00
2023-05-21T00:52:46.523Z,2299.00
2023-05-21T00:53:46.567Z,2289.00
2023-05-21T00:54:46.585Z,2289.00
2023-05-21T00:55:46.642Z,2288.00
2023-05-21T00:56:46.699Z,2288.00
2023-05-21T00:57:46.801Z,2286.00
2023-05-21T00:58:46.878Z,2288.00
2023-05-21T00:59:46.972Z,2283.00
2023-05-21T01:00:47.089Z,2276.00
2023-05-21T01:01:47.178Z,2280.00
2023-05-21T01:02:47.329Z,2279.00
2023-05-21T01:03:47.603Z,2277.00
2023-05-21T01:04:47.423Z,2274.00
2023-05-21T01:05:47.525Z,2277.00
2023-05-21T01:06:47.606Z,2278.00
2023-05-21T01:07:47.699Z,2275.00
2023-05-21T01:08:47.797Z,2274.00
2023-05-21T01:09:47.881Z,2276.00
2023-05-21T01:10:47.982Z,2268.00
2023-05-21T01:11:48.055Z,2266.00
2023-05-21T01:12:48.142Z,2262.00
2023-05-21T01:13:48.230Z,2257.00
2023-05-21T01:14:48.328Z,2252.00
2023-05-21T01:15:48.409Z,2251.00
2023-05-21T01:16:48.533Z,2251.00
2023-05-21T01:17:48.625Z,2245.00
2023-05-21T01:18:48.756Z,2250.00
2023-05-21T01:19:48.808Z,2248.00
2023-05-21T01:20:48.860Z,2244.00
2023-05-21T01:21:48.952Z,2242.00
2023-05-21T01:22:49.026Z,2243.00
2023-05-21T01:23:49.115Z,2243.00
2023-05-21T01:24:49.202Z,2243.00
2023-05-21T01:25:49.377Z,2247.00
2023-05-21T01:26:49.367Z,2243.00
2023-05-21T01:27:49.468Z,2240.00
2023-05-21T01:28:49.545Z,2239.00
2023-05-21T01:29:49.626Z,2239.00
2023-05-21T01:30:49.728Z,2242.00
2023-05-21T01:31:49.853Z,2242.00
2023-05-21T01:32:50.002Z,2237.00
2023-05-21T01:33:50.025Z,2239.00
2023-05-21T01:34:50.071Z,2238.00
2023-05-21T01:35:50.168Z,2239.00
2023-05-21T01:36:50.245Z,2232.00
2023-05-21T01:37:50.327Z,2237.00
2023-05-21T01:38:50.347Z,2238.00
2023-05-21T01:39:50.380Z,2238.00
2023-05-21T01:40:50.424Z,2241.00
2023-05-21T01:41:50.427Z,2245.00
2023-05-21T01:42:50.455Z,2246.00
2023-05-21T01:43:50.496Z,2251.00
2023-05-21T01:44:50.517Z,2249.00
2023-05-21T01:45:50.561Z,2247.00
2023-05-21T01:46:50.647Z,2245.00
2023-05-21T01:47:50.637Z,2243.00
2023-05-21T01:48:50.638Z,2243.00
2023-05-21T01:49:50.672Z,2244.00
2023-05-21T01:50:50.728Z,2240.00
2023-05-21T01:51:50.811Z,2244.00
2023-05-21T01:52:50.887Z,2234.00
2023-05-21T01:53:50.989Z,2237.00
2023-05-21T01:54:51.063Z,2228.00
2023-05-21T01:55:51.159Z,2232.00
2023-05-21T01:56:51.233Z,2240.00
2023-05-21T01:57:51.320Z,2240.00
2023-05-21T01:58:51.411Z,2242.00
2023-05-21T01:59:51.489Z,2233.00
2023-05-21T02:00:51.584Z,2230.00
2023-05-21T02:01:51.777Z,2235.00
2023-05-21T02:02:51.891Z,2236.00
2023-05-21T02:03:51.945Z,2236.00
2023-05-21T02:04:51.959Z,2236.00
2023-05-21T02:05:52.161Z,2230.00
2023-05-21T02:06:52.136Z,2230.00
2023-05-21T02:07:52.227Z,2233.00
2023-05-21T02:08:52.335Z,2234.00
2023-05-21T02:09:52.431Z,2231.00
2023-05-21T02:10:52.507Z,2229.00
2023-05-21T02:11:52.589Z,2225.00
2023-05-21T02:12:52.703Z,2223.00
2023-05-21T02:13:52.791Z,2231.00
2023-05-21T02:14:52.894Z,2227.00
2023-05-21T02:15:52.993Z,2227.00
2023-05-21T02:16:53.094Z,2221.00
2023-05-21T02:17:53.226Z,2223.00
2023-05-21T02:18:53.273Z,2223.00
2023-05-21T02:19:53.366Z,2221.00
2023-05-21T02:20:53.451Z,2218.00
2023-05-21T02:21:53.557Z,2220.00
2023-05-21T02:22:53.668Z,2222.00
2023-05-21T02:23:53.735Z,2225.00
2023-05-21T02:24:53.829Z,2217.00
2023-05-21T02:25:53.920Z,2218.00
2023-05-21T02:26:54.014Z,2218.00
2023-05-21T02:27:54.201Z,2215.00
2023-05-21T02:28:54.186Z,2217.00
2023-05-21T02:29:54.284Z,2212.00
2023-05-21T02:30:54.374Z,2206.00
2023-05-21T02:31:54.469Z,2214.00
2023-05-21T02:32:54.713Z,2197.00
2023-05-21T02:33:54.649Z,2206.00
2023-05-21T02:34:54.739Z,2207.00
2023-05-21T02:35:54.840Z,2202.00
2023-05-21T02:36:54.990Z,2199.00
2023-05-21T02:37:55.014Z,2199.00
2023-05-21T02:38:55.110Z,2195.00
2023-05-21T02:39:55.189Z,2189.00
2023-05-21T02:40:55.298Z,2185.00
2023-05-21T02:41:55.392Z,2183.00
2023-05-21T02:42:55.478Z,2184.00
2023-05-21T02:43:55.568Z,2183.00
2023-05-21T02:44:55.658Z,2179.00
2023-05-21T02:45:55.819Z,2177.00
2023-05-21T02:46:55.837Z,2177.00
2023-05-21T02:47:55.952Z,2175.00
2023-05-21T02:48:56.007Z,2173.00
2023-05-21T02:49:56.091Z,2179.00
2023-05-21T02:50:56.166Z,2168.00
2023-05-21T02:51:56.243Z,2165.00
2023-05-21T02:52:56.313Z,2161.00
2023-05-21T02:53:56.340Z,2162.00
2023-05-21T02:54:56.367Z,2164.00
2023-05-21T02:55:56.385Z,2165.00
2023-05-21T02:56:56.402Z,2161.00
2023-05-21T02:57:56.420Z,2163.00
2023-05-21T02:58:56.480Z,2165.00
2023-05-21T02:59:56.469Z,2161.00
2023-05-21T03:00:56.522Z,2158.00
2023-05-21T03:01:56.516Z,2157.00
2023-05-21T03:02:56.721Z,2157.00
2023-05-21T03:03:56.637Z,2166.00
2023-05-21T03:04:56.732Z,2158.00
2023-05-21T03:05:56.828Z,2153.00
2023-05-21T03:06:56.925Z,2155.00
2023-05-21T03:07:57.001Z,2158.00
2023-05-21T03:08:57.074Z,2157.00
2023-05-21T03:09:57.177Z,2157.00
2023-05-21T03:10:57.264Z,2153.00
2023-05-21T03:11:57.356Z,2153.00
2023-05-21T03:12:57.484Z,2154.00
2023-05-21T03:13:57.533Z,2158.00
2023-05-21T03:14:57.623Z,2152.00
2023-05-21T03:15:57.714Z,2150.00
2023-05-21T03:16:57.906Z,2143.00
2023-05-21T03:17:57.924Z,2149.00
2023-05-21T03:18:58.003Z,2151.00
2023-05-21T03:19:58.065Z,2144.00
2023-05-21T03:20:58.157Z,2147.00
2023-05-21T03:21:58.262Z,2151.00
2023-05-21T03:22:58.341Z,2135.00
2023-05-21T03:23:58.440Z,2138.00
2023-05-21T03:24:58.529Z,2136.00
2023-05-21T03:25:58.605Z,2135.00
2023-05-21T03:26:58.695Z,2124.00
2023-05-21T03:27:58.786Z,2125.00
2023-05-21T03:28:58.885Z,2127.00
2023-05-21T03:29:58.951Z,2125.00
2023-05-21T03:30:59.036Z,2118.00
2023-05-21T03:31:59.142Z,2119.00
2023-05-21T03:32:59.292Z,2117.00
2023-05-21T03:33:59.318Z,2115.00
2023-05-21T03:34:59.410Z,2117.00
2023-05-21T03:35:59.495Z,2111.00
2023-05-21T03:36:59.574Z,2120.00
2023-05-21T03:37:59.668Z,2114.00
2023-05-21T03:38:59.760Z,2106.00
2023-05-21T03:39:59.867Z,2111.00
2023-05-21T03:40:59.947Z,2105.00
2023-05-21T03:42:00.039Z,2105.00
2023-05-21T03:43:00.129Z,2102.00
2023-05-21T03:44:00.213Z,2094.00
2023-05-21T03:45:00.306Z,2095.00
2023-05-21T03:46:00.414Z,2092.00
2023-05-21T03:47:00.484Z,2100.00
2023-05-21T03:48:00.589Z,2096.00
2023-05-21T03:49:00.662Z,2092.00
2023-05-21T03:50:00.747Z,2092.00
2023-05-21T03:51:00.838Z,2093.00
2023-05-21T03:52:00.917Z,2087.00
2023-05-21T03:53:01.012Z,2087.00
2023-05-21T03:54:01.092Z,2086.00
2023-05-21T03:55:01.195Z,2087.00
2023-05-21T03:56:01.280Z,2086.00
2023-05-21T03:57:01.378Z,2083.00
2023-05-21T03:58:01.457Z,2087.00
2023-05-21T03:59:01.549Z,2081.00
2023-05-21T04:00:01.635Z,2086.00
2023-05-21T04:01:01.751Z,2088.00
2023-05-21T04:02:01.837Z,2083.00
2023-05-21T04:03:02.075Z,2077.00
2023-05-21T04:04:02.065Z,2084.00
2023-05-21T04:05:02.081Z,2081.00
2023-05-21T04:06:02.170Z,2075.00
2023-05-21T04:07:02.252Z,2083.00
2023-05-21T04:08:02.344Z,2078.00
2023-05-21T04:09:02.435Z,2083.00
2023-05-21T04:10:02.531Z,2078.00
2023-05-21T04:11:02.645Z,2080.00
2023-05-21T04:12:02.719Z,2078.00
2023-05-21T04:13:02.814Z,2075.00
2023-05-21T04:14:02.932Z,2073.00
2023-05-21T04:15:02.999Z,2070.00
2023-05-21T04:16:03.154Z,2067.00
2023-05-21T04:17:03.153Z,2067.00
2023-05-21T04:18:03.269Z,2068.00
2023-05-21T04:19:03.205Z,2069.00
2023-05-21T04:20:03.220Z,2071.00
2023-05-21T04:21:03.261Z,2071.00
2023-05-21T04:22:03.262Z,2073.00
2023-05-21T04:23:03.282Z,2077.00
2023-05-21T04:24:03.305Z,2078.00
2023-05-21T04:25:03.340Z,2071.00
2023-05-21T04:26:03.362Z,2073.00
2023-05-21T04:27:03.403Z,2069.00
2023-05-21T04:28:03.489Z,2069.00
2023-05-21T04:29:03.622Z,2068.00
2023-05-21T04:30:03.660Z,2067.00
2023-05-21T04:31:03.805Z,2065.00
2023-05-21T04:32:03.832Z,2057.00
2023-05-21T04:33:03.933Z,2063.00
2023-05-21T04:34:03.933Z,2063.00
2023-05-21T04:35:03.950Z,2065.00
2023-05-21T04:36:03.974Z,2066.00
2023-05-21T04:37:03.989Z,2067.00
2023-05-21T04:38:04.379Z,2069.00
2023-05-21T04:39:04.019Z,2062.00
2023-05-21T04:40:04.069Z,2060.00
2023-05-21T04:41:04.057Z,2070.00
2023-05-21T04:42:04.076Z,2064.00
2023-05-21T04:43:04.127Z,2065.00
2023-05-21T04:44:04.151Z,2065.00
2023-05-21T04:45:04.154Z,2066.00
2023-05-21T04:46:04.173Z,2067.00
2023-05-21T04:47:04.232Z,2065.00
2023-05-21T04:48:04.228Z,2063.00
2023-05-21T04:49:04.235Z,2063.00
2023-05-21T04:50:04.234Z,2060.00
2023-05-21T04:51:04.270Z,2062.00
2023-05-21T04:52:04.280Z,2054.00
2023-05-21T04:53:04.287Z,2055.00
2023-05-21T04:54:04.330Z,2057.00
2023-05-21T04:55:04.377Z,2053.00
2023-05-21T04:56:04.453Z,2053.00
2023-05-21T04:57:04.515Z,2049.00
2023-05-21T04:58:04.591Z,2053.00
2023-05-21T04:59:05.618Z,2050.00
2023-05-21T05:00:04.797Z,2050.00
2023-05-21T05:01:04.904Z,2051.00
2023-05-21T05:02:04.937Z,2046.00
2023-05-21T05:03:05.063Z,2043.00
2023-05-21T05:04:05.112Z,2045.00
2023-05-21T05:05:05.168Z,2045.00
2023-05-21T05:06:05.225Z,2041.00
2023-05-21T05:07:05.319Z,2035.00
2023-05-21T05:08:05.394Z,2035.00
2023-05-21T05:09:05.474Z,2042.00
2023-05-21T05:10:05.548Z,2033.00
2023-05-21T05:11:05.615Z,2027.00
2023-05-21T05:12:05.693Z,2026.00
2023-05-21T05:13:05.777Z,2014.00
2023-05-21T05:14:05.848Z,2012.00
2023-05-21T05:15:05.923Z,2008.00
2023-05-21T05:16:06.006Z,2008.00
2023-05-21T05:17:06.060Z,2008.00
2023-05-21T05:18:06.128Z,2009.00
2023-05-21T05:19:06.201Z,2009.00
2023-05-21T05:20:06.117Z,2007.00
2023-05-21T05:21:06.136Z,2004.00
2023-05-21T05:22:06.150Z,1995.00
2023-05-21T05:23:06.167Z,1999.00
2023-05-21T05:24:06.183Z,1991.00
2023-05-21T05:25:06.198Z,1992.00
2023-05-21T05:26:06.219Z,1994.00
2023-05-21T05:27:06.241Z,1994.00
2023-05-21T05:28:06.245Z,1992.00
2023-05-21T05:29:06.264Z,1994.00
2023-05-21T05:30:06.285Z,1995.00
2023-05-21T05:31:06.333Z,1990.00
2023-05-21T05:32:06.330Z,1990.00
2023-05-21T05:33:06.401Z,1989.00
2023-05-21T05:34:06.462Z,1987.00
2023-05-21T05:35:06.529Z,1983.00
2023-05-21T05:36:06.616Z,1983.00
2023-05-21T05:37:06.702Z,1978.00
2023-05-21T05:38:06.782Z,1978.00
2023-05-21T05:39:06.886Z,1972.00
2023-05-21T05:40:06.967Z,1972.00
2023-05-21T05:41:07.056Z,1973.00
2023-05-21T05:42:07.118Z,1975.00
2023-05-21T05:43:07.190Z,1975.00
2023-05-21T05:44:08.966Z,1963.00
2023-05-21T05:45:07.275Z,1976.00
2023-05-21T05:46:07.351Z,1977.00
2023-05-21T05:47:07.318Z,1978.00
2023-05-21T05:48:07.379Z,1980.00
2023-05-21T05:49:07.358Z,1974.00
2023-05-21T05:50:07.374Z,1977.00
2023-05-21T05:51:07.396Z,1977.00
2023-05-21T05:52:07.407Z,1972.00
2023-05-21T05:53:07.444Z,1974.00
2023-05-21T05:54:07.440Z,1959.00
2023-05-21T05:55:07.454Z,1965.00
2023-05-21T05:56:07.476Z,1954.00
2023-05-21T05:57:07.593Z,1946.00
2023-05-21T05:58:07.521Z,1953.00
2023-05-21T05:59:07.582Z,1944.00
2023-05-21T06:00:07.691Z,1944.00
2023-05-21T06:01:07.765Z,1936.00
2023-05-21T06:02:07.930Z,1932.00
2023-05-21T06:03:08.067Z,1929.00
2023-05-21T06:04:08.024Z,1931.00
2023-05-21T06:05:08.110Z,1928.00
2023-05-21T06:06:08.205Z,1924.00
2023-05-21T06:07:08.280Z,1920.00
2023-05-21T06:08:08.365Z,1916.00
2023-05-21T06:09:08.474Z,1914.00
2023-05-21T06:10:08.535Z,1902.00
2023-05-21T06:11:08.632Z,1900.00
2023-05-21T06:12:09.594Z,1894.00
2023-05-21T06:13:08.745Z,1894.00
2023-05-21T06:14:08.765Z,1883.00
2023-05-21T06:15:08.778Z,1878.00
2023-05-21T06:16:08.848Z,1858.00
2023-05-21T06:17:08.829Z,1868.00
2023-05-21T06:18:08.869Z,1858.00
2023-05-21T06:19:08.868Z,1856.00
2023-05-21T06:20:08.875Z,1848.00
2023-05-21T06:21:08.890Z,1849.00
2023-05-21T06:22:08.902Z,1850.00
2023-05-21T06:23:08.993Z,1849.00
2023-05-21T06:24:08.933Z,1836.00
2023-05-21T06:25:08.966Z,1823.00
2023-05-21T06:26:08.996Z,1821.00
2023-05-21T06:27:09.015Z,1811.00
2023-05-21T06:28:09.020Z,1803.00
2023-05-21T06:29:09.054Z,1805.00
2023-05-21T06:30:09.057Z,1781.00
2023-05-21T06:31:09.080Z,1781.00
2023-05-21T06:32:09.165Z,1762.00
2023-05-21T06:33:09.330Z,1760.00
2023-05-21T06:34:09.362Z,1767.00
2023-05-21T06:35:09.340Z,1760.00
2023-05-21T06:36:09.433Z,1762.00
2023-05-21T06:37:09.477Z,1765.00
2023-05-21T06:38:09.553Z,1747.00
2023-05-21T06:39:09.632Z,1747.00
2023-05-21T06:40:09.689Z,1759.00
2023-05-21T06:41:09.786Z,1748.00
2023-05-21T06:42:09.827Z,1740.00
2023-05-21T06:43:09.914Z,1733.00
2023-05-21T06:44:09.923Z,1734.00
2023-05-21T06:45:09.940Z,1735.00
2023-05-21T06:46:10.018Z,1734.00
2023-05-21T06:47:09.991Z,1739.00
2023-05-21T06:48:10.057Z,1742.00
2023-05-21T06:49:10.297Z,1740.00
2023-05-21T06:50:10.040Z,1732.00
2023-05-21T06:51:10.063Z,1728.00
2023-05-21T06:52:10.101Z,1739.00
2023-05-21T06:53:10.099Z,1712.00
2023-05-21T06:54:10.115Z,1713.00
2023-05-21T06:55:10.143Z,1716.00
2023-05-21T06:56:10.149Z,1719.00
2023-05-21T06:57:10.163Z,1715.00
2023-05-21T06:58:10.178Z,1725.00
2023-05-21T06:59:10.189Z,1710.00
2023-05-21T07:00:10.219Z,1714.00
2023-05-21T07:01:10.321Z,1713.00
2023-05-21T07:02:10.261Z,1714.00
2023-05-21T07:03:10.356Z,1712.00
2023-05-21T07:04:10.267Z,1708.00
2023-05-21T07:05:10.289Z,1703.00
2023-05-21T07:06:10.290Z,1692.00
2023-05-21T07:07:10.318Z,1681.00
2023-05-21T07:08:11.887Z,1683.00
2023-05-21T07:09:10.337Z,1665.00
2023-05-21T07:10:10.355Z,1664.00
2023-05-21T07:11:10.367Z,1675.00
2023-05-21T07:12:10.380Z,1669.00
2023-05-21T07:13:10.395Z,1670.00
2023-05-21T07:14:10.412Z,1670.00
2023-05-21T07:15:10.420Z,1674.00
2023-05-21T07:16:10.456Z,1670.00
2023-05-21T07:17:10.481Z,1663.00
2023-05-21T07:18:10.482Z,1680.00
2023-05-21T07:19:10.509Z,1647.00
2023-05-21T07:20:10.470Z,1655.00
2023-05-21T07:21:10.488Z,1651.00
2023-05-21T07:22:10.491Z,1654.00
2023-05-21T07:23:10.507Z,1664.00
2023-05-21T07:24:10.512Z,1646.00
2023-05-21T07:25:10.551Z,1661.00
2023-05-21T07:26:10.548Z,1645.00
2023-05-21T07:27:24.701Z,1649.00
2023-05-21T07:28:11.563Z,1649.00
2023-05-21T07:29:10.581Z,1651.00
2023-05-21T07:30:10.580Z,1645.00
2023-05-21T07:31:10.635Z,1643.00
2023-05-21T07:32:10.594Z,1635.00
2023-05-21T07:33:10.714Z,1624.00
2023-05-21T07:34:10.617Z,1625.00
2023-05-21T07:35:10.636Z,1626.00
2023-05-21T07:36:10.656Z,1625.00
2023-05-21T07:37:10.663Z,1637.00
2023-05-21T07:38:10.672Z,1640.00
2023-05-21T07:39:10.688Z,1644.00
2023-05-21T07:40:10.692Z,1637.00
2023-05-21T07:41:10.705Z,1625.00
2023-05-21T07:42:10.716Z,1626.00
2023-05-21T07:43:10.721Z,1628.00
2023-05-21T07:44:10.741Z,1620.00
2023-05-21T07:45:10.753Z,1628.00
2023-05-21T07:46:10.761Z,1622.00
2023-05-21T07:47:10.762Z,1614.00
2023-05-21T07:48:10.783Z,1603.00
2023-05-21T07:49:10.771Z,1587.00
2023-05-21T07:50:10.797Z,1600.00
2023-05-21T07:51:10.796Z,1586.00
2023-05-21T07:52:10.810Z,1599.00
2023-05-21T07:53:10.835Z,1598.00
2023-05-21T07:54:10.825Z,1596.00
2023-05-21T07:55:10.839Z,1577.00
2023-05-21T07:56:10.861Z,1575.00
2023-05-21T07:57:10.865Z,1581.00
2023-05-21T07:58:10.878Z,1587.00
2023-05-21T07:59:12.233Z,1578.00
2023-05-21T08:00:10.919Z,1579.00
2023-05-21T08:01:10.918Z,1580.00
2023-05-21T08:02:10.945Z,1574.00
2023-05-21T08:03:11.021Z,1571.00
2023-05-21T08:04:11.076Z,1569.00
2023-05-21T08:05:10.994Z,1561.00
2023-05-21T08:06:10.979Z,1580.00
2023-05-21T08:07:10.985Z,1572.00
2023-05-21T08:08:11.004Z,1566.00
2023-05-21T08:09:11.014Z,1574.00
2023-05-21T08:10:11.024Z,1558.00
2023-05-21T08:11:11.030Z,1562.00
2023-05-21T08:12:11.035Z,1575.00
2023-05-21T08:13:11.037Z,1561.00
2023-05-21T08:14:11.044Z,1550.00
2023-05-21T08:15:11.056Z,1555.00
2023-05-21T08:16:11.096Z,1545.00
2023-05-21T08:17:11.061Z,1556.00
2023-05-21T08:18:11.195Z,1554.00
2023-05-21T08:19:11.104Z,1539.00
2023-05-21T08:20:11.117Z,1531.00
2023-05-21T08:21:11.115Z,1538.00
2023-05-21T08:22:11.126Z,1536.00
2023-05-21T08:23:11.141Z,1533.00
2023-05-21T08:24:11.143Z,1516.00
2023-05-21T08:25:11.148Z,1530.00
2023-05-21T08:26:11.180Z,1533.00
2023-05-21T08:27:11.177Z,1520.00
2023-05-21T08:28:11.186Z,1518.00
2023-05-21T08:29:11.202Z,1501.00
2023-05-21T08:30:11.220Z,1501.00
2023-05-21T08:31:11.244Z,1502.00
2023-05-21T08:32:11.310Z,1502.00
2023-05-21T08:33:11.318Z,1506.00
2023-05-21T08:34:11.260Z,1506.00
2023-05-21T08:35:11.246Z,1512.00
2023-05-21T08:36:11.261Z,1512.00
2023-05-21T08:37:11.266Z,1493.00
2023-05-21T08:38:11.275Z,1501.00
2023-05-21T08:39:11.286Z,1507.00
2023-05-21T08:40:11.289Z,1500.00
2023-05-21T08:41:11.299Z,1503.00
2023-05-21T08:42:11.552Z,1497.00
2023-05-21T08:43:11.316Z,1506.00
2023-05-21T08:44:11.319Z,1506.00
2023-05-21T08:45:11.335Z,1508.00
2023-05-21T08:46:11.393Z,1497.00
2023-05-21T08:47:11.359Z,1502.00
2023-05-21T08:48:11.356Z,1490.00
2023-05-21T08:49:11.364Z,1498.00
2023-05-21T08:50:11.370Z,1492.00
2023-05-21T08:51:11.372Z,1506.00
2023-05-21T08:52:11.377Z,1512.00
2023-05-21T08:53:19.878Z,1498.00
2023-05-21T08:54:11.375Z,1500.00
2023-05-21T08:55:11.391Z,1501.00
2023-05-21T08:56:11.408Z,1510.00
2023-05-21T08:57:11.397Z,1505.00
2023-05-21T08:58:11.402Z,1528.00
2023-05-21T08:59:11.407Z,1512.00
2023-05-21T09:00:11.409Z,1519.00
2023-05-21T09:01:11.457Z,1520.00
2023-05-21T09:02:11.426Z,1520.00
2023-05-21T09:03:11.534Z,1521.00
2023-05-21T09:04:20.339Z,1509.00
2023-05-21T09:05:12.438Z,1520.00
2023-05-21T09:06:11.459Z,1512.00
2023-05-21T09:07:11.475Z,1521.00
2023-05-21T09:08:11.465Z,1513.00
2023-05-21T09:09:11.561Z,1522.00
2023-05-21T09:10:11.489Z,1510.00
2023-05-21T09:11:11.492Z,1513.00
2023-05-21T09:12:11.497Z,1521.00
2023-05-21T09:13:11.500Z,1531.00
2023-05-21T09:14:11.512Z,1509.00
2023-05-21T09:15:11.537Z,1500.00
2023-05-21T09:16:11.620Z,1511.00
2023-05-21T09:17:11.534Z,1514.00
2023-05-21T09:18:11.628Z,1493.00
2023-05-21T09:19:11.561Z,1500.00
2023-05-21T09:20:11.558Z,1494.00
2023-05-21T09:21:11.585Z,1495.00
2023-05-21T09:22:11.568Z,1487.00
2023-05-21T09:23:11.601Z,1503.00
2023-05-21T09:24:11.589Z,1496.00
2023-05-21T09:25:11.568Z,1506.00
2023-05-21T09:26:11.582Z,1507.00
2023-05-21T09:27:11.581Z,1506.00
2023-05-21T09:28:11.594Z,1511.00
2023-05-21T09:29:11.590Z,1502.00
2023-05-21T09:30:11.606Z,1504.00
2023-05-21T09:31:11.637Z,1505.00
2023-05-21T09:32:11.606Z,1510.00
2023-05-21T09:33:11.666Z,1509.00
2023-05-21T09:34:11.615Z,1511.00
2023-05-21T09:35:11.629Z,1507.00
2023-05-21T09:36:11.677Z,1516.00
2023-05-21T09:37:23.868Z,1507.00
2023-05-21T09:38:12.640Z,1508.00
2023-05-21T09:39:11.647Z,1509.00
2023-05-21T09:40:11.662Z,1510.00
2023-05-21T09:41:11.683Z,1512.00
2023-05-21T09:42:11.677Z,1521.00
2023-05-21T09:43:11.697Z,1511.00
2023-05-21T09:44:11.697Z,1509.00
2023-05-21T09:45:11.711Z,1521.00
2023-05-21T09:46:11.742Z,1514.00
2023-05-21T09:47:11.717Z,1519.00
2023-05-21T09:48:11.730Z,1522.00
2023-05-21T09:49:11.730Z,1510.00
2023-05-21T09:50:11.743Z,1510.00
2023-05-21T09:51:11.735Z,1520.00
2023-05-21T09:52:11.742Z,1505.00
2023-05-21T09:53:11.740Z,1503.00
2023-05-21T09:54:11.757Z,1498.00
2023-05-21T09:55:11.750Z,1505.00
2023-05-21T09:56:11.769Z,1506.00
2023-05-21T09:57:11.776Z,1508.00
2023-05-21T09:58:11.771Z,1494.00
2023-05-21T09:59:11.771Z,1507.00
2023-05-21T10:00:11.789Z,1512.00
2023-05-21T10:01:11.791Z,1501.00
2023-05-21T10:02:11.819Z,1498.00
2023-05-21T10:03:11.821Z,1524.00
2023-05-21T10:04:11.832Z,1501.00
2023-05-21T10:05:11.776Z,1511.00
2023-05-21T10:06:11.797Z,1499.00
2023-05-21T10:07:11.776Z,1498.00
2023-05-21T10:08:11.781Z,1493.00
2023-05-21T10:09:11.785Z,1486.00
2023-05-21T10:10:11.774Z,1479.00
2023-05-21T10:11:11.778Z,1492.00
2023-05-21T10:12:11.787Z,1478.00
2023-05-21T10:13:11.780Z,1472.00
2023-05-21T10:14:11.784Z,1481.00
2023-05-21T10:15:11.783Z,1463.00
2023-05-21T10:16:11.848Z,1469.00
2023-05-21T10:17:11.780Z,1468.00
2023-05-21T10:18:11.781Z,1472.00
2023-05-21T10:19:11.811Z,1471.00
2023-05-21T10:20:11.786Z,1471.00
2023-05-21T10:21:11.802Z,1473.00
2023-05-21T10:22:11.796Z,1474.00
2023-05-21T10:23:11.792Z,1474.00
2023-05-21T10:24:11.821Z,1475.00
2023-05-21T10:25:11.797Z,1474.00
2023-05-21T10:26:11.814Z,1464.00
2023-05-21T10:27:11.806Z,1470.00
2023-05-21T10:28:11.826Z,1485.00
2023-05-21T10:29:11.823Z,1469.00
2023-05-21T10:30:11.822Z,1459.00
2023-05-21T10:31:11.838Z,1464.00
2023-05-21T10:32:11.872Z,1454.00
2023-05-21T10:33:11.903Z,1457.00
2023-05-21T10:34:11.862Z,1459.00
2023-05-21T10:35:11.879Z,1457.00
2023-05-21T10:36:11.888Z,1467.00
2023-05-21T10:37:11.885Z,1457.00
2023-05-21T10:38:11.902Z,1457.00
2023-05-21T10:39:11.913Z,1459.00
2023-05-21T10:40:11.929Z,1464.00
2023-05-21T10:41:11.999Z,1469.00
2023-05-21T10:42:12.052Z,1454.00
2023-05-21T10:43:12.050Z,1467.00
2023-05-21T10:44:12.068Z,1457.00
2023-05-21T10:45:12.106Z,1475.00
2023-05-21T10:46:12.306Z,1468.00
2023-05-21T10:47:12.178Z,1471.00
2023-05-21T10:48:12.233Z,1479.00
2023-05-21T10:49:12.216Z,1477.00
2023-05-21T10:50:12.221Z,1480.00
2023-05-21T10:51:12.232Z,1484.00
2023-05-21T10:52:12.241Z,1469.00
2023-05-21T10:53:12.247Z,1470.00
2023-05-21T10:54:12.244Z,1474.00
2023-05-21T10:55:12.255Z,1483.00
2023-05-21T10:56:12.255Z,1488.00
2023-05-21T10:57:12.257Z,1501.00
2023-05-21T10:58:12.264Z,1481.00
2023-05-21T10:59:12.258Z,1493.00
2023-05-21T11:00:12.279Z,1497.00
2023-05-21T11:01:12.284Z,1505.00
2023-05-21T11:02:12.278Z,1514.00
2023-05-21T11:03:12.340Z,1501.00
2023-05-21T11:04:12.285Z,1507.00
2023-05-21T11:05:12.271Z,1509.00
2023-05-21T11:06:12.278Z,1498.00
2023-05-21T11:07:12.279Z,1493.00
2023-05-21T11:08:12.278Z,1502.00
2023-05-21T11:09:12.283Z,1497.00
2023-05-21T11:10:12.285Z,1500.00
2023-05-21T11:11:12.287Z,1504.00
2023-05-21T11:12:12.294Z,1489.00
2023-05-21T11:13:12.319Z,1503.00
2023-05-21T11:14:12.312Z,1502.00
2023-05-21T11:15:12.318Z,1507.00
2023-05-21T11:16:12.329Z,1512.00
2023-05-21T11:17:12.349Z,1513.00
2023-05-21T11:18:12.375Z,1512.00
2023-05-21T11:19:12.358Z,1509.00
2023-05-21T11:20:12.358Z,1510.00
2023-05-21T11:21:12.404Z,1513.00
2023-05-21T11:22:12.380Z,1510.00
2023-05-21T11:23:12.448Z,1516.00
2023-05-21T11:24:12.460Z,1511.00
2023-05-21T11:25:12.603Z,1508.00
2023-05-21T11:26:12.533Z,1516.00
2023-05-21T11:27:12.593Z,1519.00
2023-05-21T11:28:12.629Z,1521.00
2023-05-21T11:29:12.659Z,1504.00
2023-05-21T11:30:12.830Z,1518.00
2023-05-21T11:31:12.804Z,1511.00
2023-05-21T11:32:12.794Z,1503.00
2023-05-21T11:33:12.828Z,1500.00
2023-05-21T11:34:12.823Z,1511.00
2023-05-21T11:35:12.860Z,1500.00
2023-05-21T11:36:12.904Z,1495.00
2023-05-21T11:37:12.878Z,1497.00
2023-05-21T11:38:12.893Z,1501.00
2023-05-21T11:39:12.896Z,1497.00
2023-05-21T11:40:12.937Z,1497.00
2023-05-21T11:41:12.905Z,1486.00
2023-05-21T11:42:12.910Z,1489.00
2023-05-21T11:43:12.927Z,1468.00
2023-05-21T11:44:12.952Z,1473.00
2023-05-21T11:45:12.991Z,1475.00
2023-05-21T11:46:13.058Z,1465.00
2023-05-21T11:47:13.059Z,1468.00
2023-05-21T11:48:13.088Z,1468.00
2023-05-21T11:49:13.117Z,1463.00
2023-05-21T11:50:13.182Z,1465.00
2023-05-21T11:51:13.168Z,1478.00
2023-05-21T11:52:13.173Z,1469.00
2023-05-21T11:53:13.199Z,1474.00
2023-05-21T11:54:13.214Z,1474.00
2023-05-21T11:55:13.224Z,1472.00
2023-05-21T11:56:13.216Z,1456.00
2023-05-21T11:57:13.219Z,1471.00
2023-05-21T11:58:13.231Z,1477.00
2023-05-21T11:59:13.243Z,1472.00
2023-05-21T12:00:13.252Z,1476.00
2023-05-21T12:01:13.275Z,1479.00
2023-05-21T12:02:13.284Z,1483.00
2023-05-21T12:03:13.389Z,1471.00
2023-05-21T12:04:13.342Z,1477.00
2023-05-21T12:05:13.427Z,1479.00
2023-05-21T12:06:13.401Z,1474.00